Time;durP1;ratioP1;P1;durP2;ratioP2;P2;SDS_P1;SDS_P2;PMS_P1;PMS_P2;Temp;Humidity;BMP_temperature;BMP_pressure;BME280_temperature;BME280_humidity;BME280_pressure;Samples;Min_cycle;Max_cycle;Signal;HPM_P1;HPM_P2
2022/11/28 00:01:20;;;;;;;12.45;7.53;;;;;;;3.82;97.84;97119.66;5047787;28;20653;-61
2022/11/28 00:03:47;;;;;;;10.77;6.75;;;;;;;3.85;97.10;97116.56;5046541;28;20041;-62
2022/11/28 00:06:14;;;;;;;10.18;6.97;;;;;;;3.95;96.60;97116.09;5047773;28;20482;-61
2022/11/28 00:08:41;;;;;;;12.43;6.70;;;;;;;4.08;96.00;97112.50;5050103;28;20086;-61
2022/11/28 00:11:10;;;;;;;11.65;7.32;;;;;;;4.15;94.86;97113.28;5052791;28;20083;-60
2022/11/28 00:13:37;;;;;;;12.45;8.07;;;;;;;4.11;94.88;97114.75;5044378;28;20585;-61
2022/11/28 00:16:06;;;;;;;16.85;9.00;;;;;;;4.08;94.98;97115.16;5051105;28;20043;-61
2022/11/28 00:18:33;;;;;;;16.42;8.68;;;;;;;4.02;95.59;97112.31;5053413;28;20033;-61
2022/11/28 00:21:02;;;;;;;11.38;6.55;;;;;;;3.92;97.35;97111.16;5033550;28;20125;-61
2022/11/28 00:23:29;;;;;;;11.23;6.30;;;;;;;3.79;99.05;97110.19;5046338;28;20049;-61
2022/11/28 00:25:58;;;;;;;10.65;6.35;;;;;;;3.63;100.00;97098.13;5047160;28;20045;-61
2022/11/28 00:28:24;;;;;;;12.30;7.20;;;;;;;3.66;100.00;97097.72;5041091;28;20526;-59
2022/11/28 00:30:51;;;;;;;21.20;10.25;;;;;;;3.63;100.00;97103.50;5040224;28;20450;-61
2022/11/28 00:33:17;;;;;;;12.65;6.95;;;;;;;3.62;99.95;97102.66;5045474;28;20041;-61
2022/11/28 00:35:44;;;;;;;14.13;7.47;;;;;;;3.57;100.00;97096.31;5046496;28;20056;-62
2022/11/28 00:38:10;;;;;;;14.25;8.10;;;;;;;3.68;100.00;97095.63;5047079;28;20116;-61
2022/11/28 00:40:37;;;;;;;15.40;8.55;;;;;;;3.82;99.04;97082.16;5037548;28;20049;-61
2022/11/28 00:43:04;;;;;;;16.75;8.00;;;;;;;3.79;97.99;97091.44;5046215;28;20074;-62
2022/11/28 00:45:30;;;;;;;14.93;7.93;;;;;;;3.75;97.39;97083.03;5043207;28;20045;-61
2022/11/28 00:47:57;;;;;;;11.63;7.78;;;;;;;3.73;97.50;97074.38;5039577;28;20100;-62
2022/11/28 00:50:23;;;;;;;11.68;6.38;;;;;;;3.80;97.28;97071.69;5044175;28;20412;-61
2022/11/28 00:52:50;;;;;;;10.73;6.72;;;;;;;3.85;94.97;97076.38;5039930;28;20114;-61
2022/11/28 00:55:16;;;;;;;11.40;6.68;;;;;;;3.85;95.26;97073.69;5046527;28;20049;-62
2022/11/28 00:57:44;;;;;;;10.90;6.18;;;;;;;3.86;94.64;97075.34;5055201;28;20056;-60
2022/11/28 01:00:12;;;;;;;10.75;6.95;;;;;;;3.90;94.53;97072.03;5033980;28;20040;-61
2022/11/28 01:02:38;;;;;;;11.18;6.90;;;;;;;3.95;94.04;97066.03;5045136;28;20177;-61
2022/11/28 01:05:06;;;;;;;14.25;7.97;;;;;;;3.97;95.61;97063.09;5040123;28;20131;-60
2022/11/28 01:07:32;;;;;;;17.50;8.98;;;;;;;3.93;95.24;97053.84;5043487;28;20041;-61
2022/11/28 01:09:59;;;;;;;11.82;6.40;;;;;;;4.01;93.66;97049.06;5053243;28;20107;-61
2022/11/28 01:12:25;;;;;;;9.50;6.05;;;;;;;3.96;93.03;97051.59;5045454;28;20075;-62
2022/11/28 01:14:52;;;;;;;13.30;7.40;;;;;;;3.87;95.27;97053.69;5044529;28;20412;-61
2022/11/28 01:17:19;;;;;;;12.88;7.70;;;;;;;3.84;95.51;97045.28;5041719;28;20142;-62
2022/11/28 01:19:45;;;;;;;12.27;6.90;;;;;;;3.94;94.56;97045.59;5026269;28;20049;-61
2022/11/28 01:22:12;;;;;;;16.00;8.85;;;;;;;3.86;95.15;97048.56;5047879;28;20071;-61
2022/11/28 01:24:38;;;;;;;13.57;7.78;;;;;;;3.81;95.92;97054.56;5046058;28;20080;-61
2022/11/28 01:27:05;;;;;;;14.68;8.40;;;;;;;3.79;95.99;97047.78;5040469;28;20049;-61
2022/11/28 01:29:31;;;;;;;15.07;7.97;;;;;;;3.79;96.60;97047.78;5031722;28;20470;-61
2022/11/28 01:31:58;;;;;;;12.15;7.47;;;;;;;3.75;97.94;97044.72;5036715;28;20453;-61
2022/11/28 01:34:24;;;;;;;14.15;7.15;;;;;;;3.62;97.52;97045.63;5045796;28;20041;-61
2022/11/28 01:36:51;;;;;;;12.52;7.28;;;;;;;3.58;99.05;97042.53;5045507;28;20047;-61
2022/11/28 01:39:17;;;;;;;13.38;7.03;;;;;;;3.59;98.88;97041.53;5042745;28;20084;-61
2022/11/28 01:41:44;;;;;;;10.20;6.95;;;;;;;3.61;98.35;97049.34;5033872;28;20041;-62
2022/11/28 01:44:10;;;;;;;12.52;7.68;;;;;;;3.62;98.90;97046.44;5025434;28;20128;-61
2022/11/28 01:46:37;;;;;;;12.43;6.38;;;;;;;3.75;97.24;97042.03;5033283;28;20044;-61
2022/11/28 01:49:14;;;;;;;11.05;5.65;;;;;;;3.81;95.42;97037.69;5045070;28;20049;-61
2022/11/28 01:51:46;;;;;;;11.05;5.68;;;;;;;4.01;92.57;97029.50;5033538;28;20045;-61
2022/11/28 01:54:16;;;;;;;9.32;5.63;;;;;;;4.14;90.31;97028.56;5025403;28;20061;-62
2022/11/28 01:56:57;;;;;;;10.05;6.10;;;;;;;4.09;90.79;97033.78;5033370;28;20041;-62
2022/11/28 01:59:28;;;;;;;9.30;5.28;;;;;;;3.93;94.86;97035.94;5043188;28;20033;-61
2022/11/28 02:01:55;;;;;;;10.87;6.33;;;;;;;3.88;94.81;97025.06;5039969;28;20076;-61
2022/11/28 02:04:25;;;;;;;10.68;5.85;;;;;;;3.92;93.87;97020.91;5025527;28;20045;-62
2022/11/28 02:06:53;;;;;;;11.00;5.80;;;;;;;3.88;93.58;97009.78;5033774;28;20037;-61
2022/11/28 02:09:20;;;;;;;7.55;5.28;;;;;;;3.83;94.63;97003.47;5050077;28;20527;-62
2022/11/28 02:11:58;;;;;;;10.23;6.15;;;;;;;3.77;95.89;96997.94;5042854;28;20037;-62
2022/11/28 02:15:04;;;;;;;12.75;6.97;;;;;;;3.75;96.78;96991.97;5042905;28;20041;-62
2022/11/28 02:17:49;;;;;;;9.73;6.38;;;;;;;3.78;96.94;96990.72;5040759;28;20043;-62
2022/11/28 02:20:38;;;;;;;10.15;6.28;;;;;;;3.79;96.63;96980.84;5030302;28;20505;-61
2022/11/28 02:23:24;;;;;;;10.43;6.22;;;;;;;3.81;95.28;96981.44;5042459;28;20041;-61
2022/11/28 02:26:09;;;;;;;9.20;5.65;;;;;;;3.53;97.80;96996.06;5030890;28;20057;-61
2022/11/28 02:28:48;;;;;;;10.98;5.80;;;;;;;3.60;97.54;96991.47;5025768;28;20064;-62
2022/11/28 02:31:29;;;;;;;9.52;4.97;;;;;;;3.79;95.87;96989.69;5027279;28;20472;-62
2022/11/28 02:34:04;;;;;;;9.57;5.05;;;;;;;4.04;91.95;96980.84;5027089;28;20044;-60
2022/11/28 02:36:35;;;;;;;8.05;5.00;;;;;;;4.01;92.86;96990.13;5034807;28;20423;-61
2022/11/28 02:39:29;;;;;;;10.45;5.65;;;;;;;3.75;96.80;96991.97;5044466;28;20041;-61
2022/11/28 02:42:07;;;;;;;9.30;5.10;;;;;;;3.69;97.09;96974.09;5031515;28;20033;-61
2022/11/28 02:44:46;;;;;;;10.07;5.07;;;;;;;3.77;96.16;96970.34;5040288;28;20041;-61
2022/11/28 02:47:22;;;;;;;8.75;5.10;;;;;;;3.87;94.58;96970.66;5044162;28;20572;-61
2022/11/28 02:50:12;;;;;;;10.38;5.72;;;;;;;3.77;96.11;96955.06;5038373;28;20099;-62
2022/11/28 02:52:44;;;;;;;9.95;5.75;;;;;;;3.72;96.78;96965.63;5047138;28;20086;-61
2022/11/28 02:55:12;;;;;;;;;;;;;;;3.82;96.70;96962.47;5049408;28;20045;-61
2022/11/28 02:57:47;;;;;;;12.90;5.20;;;;;;;3.87;95.99;96969.88;5048536;28;20513;-61
2022/11/28 03:00:25;;;;;;;8.40;4.82;;;;;;;3.91;95.28;96960.34;5037314;28;20119;-61
2022/11/28 03:03:34;;;;;;;9.43;5.15;;;;;;;3.84;95.54;96954.22;5047469;28;20044;-61
2022/11/28 03:06:22;;;;;;;8.93;5.30;;;;;;;3.81;96.33;96951.97;5043612;28;20081;-61
2022/11/28 03:09:07;;;;;;;9.38;4.93;;;;;;;3.61;97.99;96961.81;5052352;28;20500;-61
2022/11/28 03:12:06;;;;;;;7.78;4.88;;;;;;;3.69;98.01;96950.00;5031527;28;20049;-61
2022/11/28 03:14:54;;;;;;;9.18;5.25;;;;;;;3.70;98.27;96954.34;5019650;28;20148;-61
2022/11/28 03:17:21;;;;;;;8.80;5.15;;;;;;;3.69;97.84;96952.66;5048070;28;20532;-61
2022/11/28 03:20:06;;;;;;;12.18;4.57;;;;;;;3.92;95.87;96953.13;5044131;28;20072;-61
2022/11/28 03:22:43;;;;;;;9.05;4.38;;;;;;;3.79;96.36;96956.75;5038452;28;20045;-62
2022/11/28 03:25:29;;;;;;;7.18;4.78;;;;;;;3.58;98.97;96956.06;5028268;28;20053;-61
2022/11/28 03:28:06;;;;;;;11.05;5.55;;;;;;;3.62;99.10;96951.91;5039971;28;20131;-61
2022/11/28 03:30:59;;;;;;;7.72;5.18;;;;;;;3.64;98.54;96937.28;5040098;28;20547;-62
2022/11/28 03:33:32;;;;;;;11.65;5.88;;;;;;;3.73;97.20;96937.81;5041739;28;20524;-61
2022/11/28 03:36:15;;;;;;;8.02;4.50;;;;;;;3.87;95.17;96948.44;5028390;28;20052;-61
2022/11/28 03:38:47;;;;;;;6.60;3.97;;;;;;;3.93;94.89;96955.56;5046341;28;20045;-61
2022/11/28 03:41:18;;;;;;;9.40;4.63;;;;;;;3.95;95.27;96952.69;5035691;28;20508;-61
2022/11/28 03:43:55;;;;;;;8.02;4.55;;;;;;;3.99;93.15;96945.84;5047443;28;20511;-62
2022/11/28 03:46:29;;;;;;;9.27;4.55;;;;;;;3.90;94.45;96938.09;5047242;28;20121;-62
2022/11/28 03:48:58;;;;;;;10.13;4.93;;;;;;;3.73;95.87;96935.13;5048657;28;20402;-61
2022/11/28 03:51:52;;;;;;;9.25;5.15;;;;;;;3.20;100.00;96941.69;5047087;28;20041;-62
2022/11/28 03:54:25;;;;;;;7.40;4.63;;;;;;;3.08;100.00;96945.06;5044345;28;20064;-61
2022/11/28 03:57:21;;;;;;;7.35;4.57;;;;;;;3.15;100.00;96947.69;5046478;28;20049;-62
2022/11/28 03:59:51;;;;;;;10.10;4.57;;;;;;;3.21;100.00;96943.34;5034416;28;20657;-62
2022/11/28 04:02:38;;;;;;;9.77;4.95;;;;;;;3.26;100.00;96943.50;5045571;28;20095;-61
2022/11/28 04:05:36;;;;;;;7.97;4.38;;;;;;;3.30;100.00;96941.22;5047033;28;20053;-61
2022/11/28 04:08:23;;;;;;;10.32;5.47;;;;;;;3.35;100.00;96928.00;5047384;28;20151;-61
2022/11/28 04:10:57;;;;;;;8.32;4.43;;;;;;;3.40;99.94;96932.72;5039980;28;20048;-61
2022/11/28 04:13:53;;;;;;;7.47;4.78;;;;;;;3.48;100.00;96919.91;5039267;28;20096;-61
2022/11/28 04:16:30;;;;;;;9.55;4.38;;;;;;;3.67;96.00;96919.13;5043973;28;20531;-61
2022/11/28 04:19:05;;;;;;;8.82;4.30;;;;;;;3.71;95.78;96923.84;5045503;28;20049;-61
2022/11/28 04:21:38;;;;;;;8.35;4.93;;;;;;;3.66;98.95;96929.03;5044174;28;20125;-61
2022/11/28 04:24:10;;;;;;;7.95;4.70;;;;;;;3.47;99.17;96918.25;5046529;28;20076;-61
2022/11/28 04:26:47;;;;;;;8.02;4.80;;;;;;;3.37;100.00;96920.59;5046523;28;20617;-61
2022/11/28 04:29:17;;;;;;;11.93;5.60;;;;;;;3.28;100.00;96935.28;5030876;28;20069;-61
2022/11/28 04:31:45;;;;;;;8.52;4.30;;;;;;;3.23;100.00;96931.38;5044570;28;20500;-61
2022/11/28 04:34:16;;;;;;;8.85;5.05;;;;;;;3.02;100.00;96926.38;5043683;28;20056;-61
2022/11/28 04:36:44;;;;;;;10.18;4.88;;;;;;;3.04;100.00;96918.94;5041746;28;20132;-61
2022/11/28 04:39:17;;;;;;;9.20;4.80;;;;;;;2.97;100.00;96921.66;5027106;28;20049;-61
2022/11/28 04:42:18;;;;;;;9.38;4.90;;;;;;;2.85;100.00;96918.84;5040600;28;20524;-61
2022/11/28 04:45:10;;;;;;;13.38;4.15;;;;;;;2.76;100.00;96920.94;5024318;28;20069;-61
2022/11/28 04:47:37;;;;;;;9.05;4.85;;;;;;;2.73;100.00;96922.19;5046471;28;20063;-61
2022/11/28 04:50:04;;;;;;;7.85;4.45;;;;;;;2.84;100.00;96938.59;5050466;28;20101;-62
2022/11/28 04:52:39;;;;;;;9.15;4.85;;;;;;;3.24;98.23;96940.22;5054200;28;20033;-61
2022/11/28 04:55:06;;;;;;;8.05;4.72;;;;;;;3.36;97.02;96925.13;5030278;28;20036;-61
2022/11/28 04:57:39;;;;;;;7.60;3.97;;;;;;;3.55;95.39;96935.06;5045789;28;20044;-60
2022/11/28 05:00:16;;;;;;;8.48;4.07;;;;;;;3.64;93.02;96928.41;5031588;28;20515;-60
2022/11/28 05:02:45;;;;;;;7.53;3.97;;;;;;;3.60;93.77;96938.75;5044684;28;20531;-61
2022/11/28 05:05:16;;;;;;;8.43;4.72;;;;;;;3.58;94.63;96937.31;5030244;28;20041;-61
2022/11/28 05:07:42;;;;;;;10.55;4.88;;;;;;;3.57;97.04;96943.72;5045779;28;20080;-61
2022/11/28 05:10:10;;;;;;;8.70;4.95;;;;;;;3.49;95.94;96939.44;5061126;28;20048;-62
2022/11/28 05:12:37;;;;;;;8.70;4.65;;;;;;;3.37;97.26;96933.97;5053670;28;20223;-62
2022/11/28 05:15:05;;;;;;;7.10;4.30;;;;;;;3.27;98.04;96944.34;5043814;28;20645;-62
2022/11/28 05:17:33;;;;;;;7.57;4.25;;;;;;;3.27;98.76;96944.34;5045801;28;20048;-60
2022/11/28 05:20:06;;;;;;;7.63;4.43;;;;;;;3.09;98.97;96943.19;5046176;28;20065;-62
2022/11/28 05:22:33;;;;;;;8.15;4.93;;;;;;;2.95;100.00;96940.59;5039962;28;20065;-61
2022/11/28 05:24:59;;;;;;;10.25;4.82;;;;;;;2.89;100.00;96936.09;5040149;28;20044;-61
2022/11/28 05:27:25;;;;;;;8.43;4.30;;;;;;;2.75;100.00;96931.81;5045810;28;20041;-62
2022/11/28 05:29:52;;;;;;;9.82;4.43;;;;;;;2.46;100.00;96930.31;5029637;28;20041;-61
2022/11/28 05:32:19;;;;;;;8.65;4.20;;;;;;;2.50;100.00;96943.25;5032641;28;20474;-61
2022/11/28 05:34:45;;;;;;;8.38;5.03;;;;;;;2.56;100.00;96934.38;5025254;28;20045;-59
2022/11/28 05:37:12;;;;;;;9.38;5.05;;;;;;;2.67;100.00;96952.44;5045173;28;20558;-61
2022/11/28 05:39:38;;;;;;;7.80;4.25;;;;;;;2.78;100.00;96950.13;5041237;28;20124;-62
2022/11/28 05:42:05;;;;;;;8.52;4.40;;;;;;;2.81;100.00;96955.91;5044576;28;20523;-61
2022/11/28 05:44:32;;;;;;;7.20;4.35;;;;;;;2.86;100.00;96955.25;5026271;28;20656;-62
2022/11/28 05:46:58;;;;;;;9.80;5.00;;;;;;;2.88;100.00;96960.38;5042241;28;20046;-61
2022/11/28 05:49:25;;;;;;;9.05;4.78;;;;;;;2.90;100.00;96955.63;5046075;28;20087;-62
2022/11/28 05:51:51;;;;;;;7.15;4.15;;;;;;;2.89;100.00;96964.69;5055530;28;20037;-61
2022/11/28 05:54:18;;;;;;;8.18;4.47;;;;;;;2.55;100.00;96959.47;5029058;28;20724;-60
2022/11/28 05:56:44;;;;;;;9.65;5.28;;;;;;;2.70;100.00;96954.66;5037887;28;20053;-61
2022/11/28 05:59:12;;;;;;;8.43;5.20;;;;;;;2.74;100.00;96949.75;5034643;28;20081;-61
2022/11/28 06:01:39;;;;;;;10.75;5.25;;;;;;;2.68;100.00;96947.91;5037695;28;20729;-61
2022/11/28 06:04:05;;;;;;;10.48;4.32;;;;;;;2.55;100.00;96948.78;5030016;28;20136;-62
2022/11/28 06:06:34;;;;;;;8.38;4.70;;;;;;;2.38;100.00;96949.25;5036942;28;20049;-62
2022/11/28 06:09:00;;;;;;;9.98;4.90;;;;;;;2.39;100.00;96947.41;5050053;28;20052;-61
2022/11/28 06:11:29;;;;;;;9.52;5.47;;;;;;;2.52;100.00;96949.19;5063487;28;20037;-62
2022/11/28 06:13:56;;;;;;;9.50;4.93;;;;;;;2.56;100.00;96943.22;5037898;28;20055;-61
2022/11/28 06:16:27;;;;;;;8.88;5.13;;;;;;;2.68;100.00;96950.56;5045003;28;20088;-62
2022/11/28 06:18:55;;;;;;;10.02;4.95;;;;;;;2.50;100.00;96953.94;5027911;28;20041;-62
2022/11/28 06:21:22;;;;;;;10.98;4.95;;;;;;;2.52;100.00;96955.38;5050614;28;20114;-61
2022/11/28 06:23:49;;;;;;;11.98;5.28;;;;;;;2.68;100.00;96943.38;5032423;28;20050;-62
2022/11/28 06:26:19;;;;;;;8.50;4.45;;;;;;;2.55;100.00;96943.44;5035856;28;20179;-62
2022/11/28 06:28:46;;;;;;;9.65;5.13;;;;;;;2.27;100.00;96942.69;5041657;28;20049;-61
2022/11/28 06:31:26;;;;;;;10.02;4.95;;;;;;;2.29;100.00;96945.97;5036999;28;20044;-62
2022/11/28 06:33:53;;;;;;;9.68;5.03;;;;;;;2.43;100.00;96941.41;5040861;28;20063;-62
2022/11/28 06:36:19;;;;;;;8.75;5.50;;;;;;;2.49;100.00;96942.44;5048188;28;20072;-62
2022/11/28 06:38:46;;;;;;;9.27;5.10;;;;;;;2.57;100.00;96941.34;5049037;28;20098;-62
2022/11/28 06:41:16;;;;;;;9.95;4.88;;;;;;;2.63;100.00;96932.50;5045685;28;20102;-62
2022/11/28 06:43:43;;;;;;;9.85;5.40;;;;;;;2.66;100.00;96940.13;5046985;28;20044;-62
2022/11/28 06:46:12;;;;;;;9.10;5.38;;;;;;;2.50;100.00;96937.91;5048480;28;20551;-61
2022/11/28 06:48:42;;;;;;;10.73;5.18;;;;;;;2.47;100.00;96923.91;5046566;28;20448;-62
2022/11/28 06:51:10;;;;;;;9.60;4.97;;;;;;;2.42;100.00;96931.75;5043064;28;20129;-62
2022/11/28 06:53:36;;;;;;;11.15;4.70;;;;;;;2.43;100.00;96933.41;5038822;28;20049;-61
2022/11/28 06:56:09;;;;;;;7.80;5.05;;;;;;;2.52;100.00;96933.16;5049323;28;20043;-61
2022/11/28 06:58:35;;;;;;;8.32;4.55;;;;;;;2.59;100.00;96934.78;5042037;28;20045;-61
2022/11/28 07:01:10;;;;;;;10.85;5.70;;;;;;;2.40;100.00;96947.16;5039724;28;20049;-60
2022/11/28 07:03:38;;;;;;;12.40;7.20;;;;;;;2.44;100.00;96958.28;5038730;28;20056;-61
2022/11/28 07:06:05;;;;;;;12.18;6.68;;;;;;;2.64;100.00;96958.22;5036570;28;20482;-61
2022/11/28 07:08:33;;;;;;;10.80;5.38;;;;;;;2.72;100.00;96963.31;5050184;28;20053;-61
2022/11/28 07:11:10;;;;;;;10.52;5.47;;;;;;;2.68;100.00;96970.13;5053778;28;20042;-61
2022/11/28 07:13:37;;;;;;;9.13;4.68;;;;;;;2.77;100.00;96953.84;5039152;28;20115;-61
2022/11/28 07:16:04;;;;;;;9.15;5.10;;;;;;;2.78;100.00;96963.50;5032720;28;20045;-62
2022/11/28 07:18:31;;;;;;;7.40;4.45;;;;;;;2.69;100.00;96973.63;5045031;28;20041;-61
2022/11/28 07:20:58;;;;;;;10.55;4.95;;;;;;;2.75;100.00;96969.25;5041581;28;20037;-62
2022/11/28 07:23:25;;;;;;;8.60;5.05;;;;;;;2.70;100.00;96964.56;5035949;28;20041;-61
2022/11/28 07:25:57;;;;;;;6.82;4.20;;;;;;;2.69;100.00;96969.09;5036931;28;20839;-63
2022/11/28 07:28:24;;;;;;;9.80;4.68;;;;;;;2.79;100.00;96971.31;5036959;28;20047;-62
2022/11/28 07:31:09;;;;;;;9.77;4.88;;;;;;;2.83;100.00;96969.84;5042249;28;20033;-61
2022/11/28 07:33:37;;;;;;;9.93;4.65;;;;;;;2.90;100.00;96961.81;5030826;28;20045;-62
2022/11/28 07:36:07;;;;;;;10.63;4.13;;;;;;;2.65;100.00;96965.19;5034565;28;20143;-60
2022/11/28 07:38:34;;;;;;;8.68;4.90;;;;;;;2.52;100.00;96962.56;5033125;28;20090;-60
2022/11/28 07:41:12;;;;;;;10.45;5.38;;;;;;;2.68;100.00;96958.59;5037836;28;20615;-60
2022/11/28 07:43:44;;;;;;;9.15;5.43;;;;;;;2.86;100.00;96963.25;5038141;28;20146;-59
2022/11/28 07:46:13;;;;;;;9.95;4.53;;;;;;;2.90;100.00;96966.31;5042464;28;20124;-63
2022/11/28 07:48:41;;;;;;;9.45;5.00;;;;;;;2.81;100.00;96960.41;5038535;28;20047;-60
2022/11/28 07:51:12;;;;;;;8.30;5.00;;;;;;;2.95;100.00;96963.84;5042109;28;20128;-60
2022/11/28 07:53:39;;;;;;;10.02;4.85;;;;;;;3.05;100.00;96961.53;5042843;28;20147;-60
2022/11/28 07:56:11;;;;;;;10.32;5.50;;;;;;;3.21;100.00;96959.41;5038177;28;20609;-59
2022/11/28 07:58:38;;;;;;;9.02;5.57;;;;;;;3.32;100.00;96960.56;5031547;28;20048;-60
2022/11/28 08:01:13;;;;;;;7.93;5.07;;;;;;;3.32;100.00;96960.56;5046816;28;20562;-60
2022/11/28 08:03:40;;;;;;;8.25;5.03;;;;;;;3.39;100.00;96964.00;5042052;28;20052;-59
2022/11/28 08:06:07;;;;;;;9.38;4.47;;;;;;;3.45;100.00;96971.19;5045092;28;20045;-59
2022/11/28 08:08:34;;;;;;;8.63;4.68;;;;;;;3.48;100.00;96968.09;5047384;28;20205;-60
2022/11/28 08:11:03;;;;;;;8.60;4.22;;;;;;;3.53;99.61;96974.66;5054508;28;20044;-60
2022/11/28 08:13:30;;;;;;;7.18;4.78;;;;;;;3.57;99.40;96965.16;5045227;28;20053;-59
2022/11/28 08:15:57;;;;;;;8.57;4.75;;;;;;;3.59;99.66;96963.88;5044238;28;20044;-61
2022/11/28 08:18:26;;;;;;;6.78;4.18;;;;;;;3.61;99.84;96961.81;5027517;28;20091;-59
2022/11/28 08:21:02;;;;;;;8.50;4.15;;;;;;;3.72;99.24;96965.63;5037192;28;20036;-62
2022/11/28 08:23:29;;;;;;;10.80;4.35;;;;;;;3.83;98.57;96972.13;5043855;28;20075;-62
2022/11/28 08:25:55;;;;;;;7.18;3.92;;;;;;;4.05;96.62;96969.06;5043444;28;20063;-61
2022/11/28 08:28:22;;;;;;;6.85;3.85;;;;;;;4.23;94.94;96967.47;5041090;28;20471;-62
2022/11/28 08:30:48;;;;;;;8.65;3.65;;;;;;;4.35;94.21;96973.72;5039097;28;20052;-62
2022/11/28 08:33:15;;;;;;;6.82;3.42;;;;;;;4.46;93.46;96972.19;5038546;28;20689;-62
2022/11/28 08:35:41;;;;;;;6.90;3.67;;;;;;;4.54;91.93;96976.44;5044859;28;20045;-62
2022/11/28 08:38:08;;;;;;;8.18;3.55;;;;;;;4.69;91.35;96971.50;5044865;28;20045;-62
2022/11/28 08:40:34;;;;;;;8.95;3.90;;;;;;;4.69;92.54;96966.16;5044545;28;20099;-62
2022/11/28 08:43:01;;;;;;;6.55;4.32;;;;;;;4.73;91.92;96971.91;5047923;28;20068;-61
2022/11/28 08:45:27;;;;;;;9.32;4.40;;;;;;;4.64;93.14;96973.25;5052675;28;20049;-62
2022/11/28 08:47:54;;;;;;;8.27;4.38;;;;;;;4.46;94.05;96974.88;5044126;28;20114;-62
2022/11/28 08:50:20;;;;;;;7.15;3.92;;;;;;;4.61;92.33;96969.13;5044944;28;20061;-61
2022/11/28 08:52:47;;;;;;;6.55;3.75;;;;;;;4.76;90.55;96976.00;5049893;28;20718;-62
2022/11/28 08:55:14;;;;;;;8.27;4.10;;;;;;;4.77;90.55;96965.06;5052043;28;20045;-61
2022/11/28 08:57:40;;;;;;;8.07;3.47;;;;;;;4.93;89.14;96960.09;5044702;28;20588;-62
2022/11/28 09:00:07;;;;;;;6.45;3.95;;;;;;;5.03;88.51;96956.88;5013900;28;20434;-62
2022/11/28 09:02:34;;;;;;;6.50;3.40;;;;;;;5.19;87.17;96960.81;5023440;28;20573;-62
2022/11/28 09:05:00;;;;;;;8.45;3.88;;;;;;;5.32;86.36;96959.81;5044146;28;20508;-62
2022/11/28 09:07:27;;;;;;;7.28;3.92;;;;;;;5.33;86.03;96951.53;5044921;28;20068;-61
2022/11/28 09:09:53;;;;;;;6.55;3.88;;;;;;;5.37;86.12;96951.06;5057400;28;20041;-62
2022/11/28 09:12:20;;;;;;;7.70;3.92;;;;;;;5.36;87.53;96954.78;5043794;28;20072;-61
2022/11/28 09:14:46;;;;;;;8.70;3.83;;;;;;;5.40;87.24;96959.50;5043924;28;20095;-62
2022/11/28 09:17:14;;;;;;;8.80;3.60;;;;;;;5.38;88.61;96961.56;5043971;28;20048;-61
2022/11/28 09:19:41;;;;;;;9.20;4.20;;;;;;;5.47;88.59;96962.06;5044708;28;20045;-62
2022/11/28 09:22:08;;;;;;;8.45;4.32;;;;;;;5.66;86.98;96962.81;5041402;28;20041;-60
2022/11/28 09:24:35;;;;;;;9.85;4.47;;;;;;;5.80;85.69;96974.19;5036920;28;20048;-59
2022/11/28 09:27:01;;;;;;;7.80;3.55;;;;;;;5.77;84.60;96969.28;5043744;28;20041;-60
2022/11/28 09:29:28;;;;;;;9.70;4.10;;;;;;;5.79;85.09;96967.16;5042289;28;20049;-61
2022/11/28 09:31:54;;;;;;;10.38;3.97;;;;;;;5.83;84.87;96962.97;5043284;28;20574;-61
2022/11/28 09:34:21;;;;;;;11.52;4.35;;;;;;;5.91;85.72;96974.44;5043694;28;20227;-60
2022/11/28 09:36:48;;;;;;;9.27;4.43;;;;;;;5.96;86.02;96975.38;5044075;28;20053;-61
2022/11/28 09:39:15;;;;;;;7.95;3.78;;;;;;;6.07;84.63;96976.47;5043765;28;20048;-62
2022/11/28 09:41:59;;;;;;;8.05;3.72;;;;;;;6.05;84.24;96975.88;5042239;28;20045;-61
2022/11/28 09:44:36;;;;;;;6.15;3.38;;;;;;;6.05;84.08;96978.56;5043756;28;20576;-59
2022/11/28 09:47:11;;;;;;;7.75;2.78;;;;;;;6.21;82.86;96984.31;5043587;28;20044;-62
2022/11/28 09:49:51;;;;;;;6.97;2.78;;;;;;;6.08;83.15;96975.41;5044212;28;20045;-60
2022/11/28 09:52:28;;;;;;;8.98;2.72;;;;;;;6.14;83.06;96979.03;5034304;28;20091;-61
2022/11/28 09:55:03;;;;;;;6.05;2.63;;;;;;;6.30;82.70;96974.03;5043547;28;20075;-61
2022/11/28 09:57:48;;;;;;;5.95;2.80;;;;;;;6.27;83.97;96964.56;5009851;28;20535;-61
2022/11/28 10:00:21;;;;;;;4.93;2.58;;;;;;;6.46;83.41;96969.81;5019106;28;20044;-62
2022/11/28 10:02:59;;;;;;;5.97;2.83;;;;;;;6.57;82.95;96968.97;5055323;28;20041;-60
2022/11/28 10:05:41;;;;;;;6.22;2.92;;;;;;;6.58;83.69;96962.53;5047826;28;20045;-61
2022/11/28 10:08:28;;;;;;;5.68;2.83;;;;;;;6.59;84.74;96958.78;5048094;28;20487;-62
2022/11/28 10:11:33;;;;;;;6.00;2.90;;;;;;;6.59;85.36;96964.16;5046683;28;20087;-63
2022/11/28 10:14:17;;;;;;;6.72;3.15;;;;;;;6.58;84.79;96967.09;5047839;28;20140;-62
2022/11/28 10:16:56;;;;;;;7.57;3.67;;;;;;;6.55;85.53;96965.69;5061446;28;20052;-62
2022/11/28 10:19:34;;;;;;;6.32;3.05;;;;;;;6.62;84.50;96958.31;5048150;28;20210;-62
2022/11/28 10:22:30;;;;;;;7.05;3.60;;;;;;;6.79;84.79;96951.38;5037093;28;20083;-62
2022/11/28 10:25:02;;;;;;;6.70;3.00;;;;;;;6.92;84.71;96951.09;5047075;28;20040;-62
2022/11/28 10:27:33;;;;;;;6.57;3.22;;;;;;;7.04;84.84;96943.00;5047307;28;20540;-62
2022/11/28 10:30:07;;;;;;;;;;;;;;;7.20;83.97;96936.03;5046895;28;20133;-62
2022/11/28 10:32:40;;;;;;;4.53;2.67;;;;;;;7.29;82.48;96937.28;5038860;28;19921;-62
2022/11/28 10:35:20;;;;;;;8.73;3.30;;;;;;;7.54;79.32;96946.88;5046849;28;20124;-62
2022/11/28 10:37:53;;;;;;;5.50;2.25;;;;;;;7.26;80.21;96945.84;5045563;28;20056;-62
2022/11/28 10:40:47;;;;;;;5.63;2.35;;;;;;;7.20;81.30;96941.44;5044909;28;20156;-62
2022/11/28 10:43:42;;;;;;;9.88;3.30;;;;;;;7.36;80.27;96939.81;5056212;28;20080;-62
2022/11/28 10:46:28;;;;;;;6.97;2.63;;;;;;;7.22;81.98;96933.13;5047053;28;20044;-61
2022/11/28 10:49:04;;;;;;;7.47;3.13;;;;;;;7.20;82.97;96944.13;5031125;28;20174;-58
2022/11/28 10:52:03;;;;;;;6.28;3.03;;;;;;;7.32;83.88;96937.84;5031323;28;20033;-59
2022/11/28 10:55:00;;;;;;;7.68;3.00;;;;;;;7.35;84.40;96934.69;5030859;28;20114;-58
2022/11/28 10:57:47;;;;;;;6.90;2.92;;;;;;;7.38;85.67;96943.06;5023840;28;20049;-58
2022/11/28 11:00:17;;;;;;;4.93;2.67;;;;;;;7.50;84.94;96931.44;5004515;28;20125;-58
2022/11/28 11:02:53;;;;;;;7.57;3.20;;;;;;;7.62;85.85;96923.28;5018167;28;20128;-60
2022/11/28 11:05:25;;;;;;;6.97;3.20;;;;;;;7.65;87.73;96922.78;4986381;28;20520;-60
2022/11/28 11:07:54;;;;;;;7.15;3.40;;;;;;;7.63;88.63;96928.41;4994425;28;20045;-61
2022/11/28 11:11:02;;;;;;;5.90;3.30;;;;;;;7.68;90.31;96933.09;5007853;28;20045;-59
2022/11/28 11:13:32;;;;;;;7.32;3.45;;;;;;;7.77;88.71;96931.63;4997880;28;20142;-60
2022/11/28 11:16:03;;;;;;;10.07;5.13;;;;;;;7.84;88.47;96934.16;5046901;28;20566;-60
2022/11/28 11:18:33;;;;;;;8.93;4.45;;;;;;;7.93;87.43;96929.97;5047499;28;20041;-64
2022/11/28 11:21:19;;;;;;;11.23;3.67;;;;;;;7.80;87.84;96933.00;5045400;28;20127;-62
2022/11/28 11:23:47;;;;;;;8.75;3.85;;;;;;;7.65;89.68;96931.72;5052189;28;20131;-61
2022/11/28 11:26:24;;;;;;;5.38;3.05;;;;;;;7.58;88.70;96936.44;5066368;28;20139;-62
2022/11/28 11:28:51;;;;;;;7.72;4.80;;;;;;;7.62;89.37;96939.44;5038630;28;20611;-60
2022/11/28 11:31:20;;;;;;;10.23;5.70;;;;;;;7.71;88.50;96935.31;5059135;28;20078;-59
2022/11/28 11:33:51;;;;;;;8.05;5.07;;;;;;;7.78;88.14;96933.25;5046070;28;20075;-62
2022/11/28 11:36:25;;;;;;;6.75;3.88;;;;;;;7.90;85.98;96927.78;5044235;28;20056;-61
2022/11/28 11:39:04;;;;;;;8.02;3.55;;;;;;;8.10;85.18;96931.84;5046126;28;20049;-62
2022/11/28 11:41:31;;;;;;;7.78;3.55;;;;;;;7.82;87.45;96925.50;5045930;28;20041;-62
2022/11/28 11:44:19;;;;;;;7.88;4.22;;;;;;;7.77;90.33;96922.72;5045013;28;20116;-63
2022/11/28 11:47:02;;;;;;;10.07;4.93;;;;;;;7.76;90.75;96930.00;5045521;28;20128;-64
2022/11/28 11:49:42;;;;;;;11.65;4.43;;;;;;;7.75;92.57;96924.84;5040577;28;20052;-62
2022/11/28 11:52:15;;;;;;;7.68;4.50;;;;;;;7.67;93.71;96924.19;5044597;28;20582;-63
2022/11/28 11:54:53;;;;;;;12.25;4.65;;;;;;;7.64;95.10;96935.47;5052029;28;20109;-61
2022/11/28 11:57:32;;;;;;;6.78;4.03;;;;;;;7.59;94.56;96927.28;5050462;28;20652;-61
2022/11/28 12:00:13;;;;;;;6.00;3.35;;;;;;;7.65;93.45;96931.72;5040532;28;20044;-61
2022/11/28 12:02:53;;;;;;;7.55;3.55;;;;;;;7.57;94.92;96931.28;5044807;28;20210;-61